Valdosta, GA (31601)

5:56 AM EST on February 12, 2016 (GMT -0500)
Audio Video and Security Inc. | | Change Station
CLOSE
Current Station
Personal Weather Station
Location: Valdosta, GA
Elevation: 220 ft
Nearby Weather Stations
Active Advisory: Flood Warning

Elev 220 ft 30.81 °N, 83.32 °W | Updated 44 seconds ago

Overcast
Overcast
50.0 °F
Feels Like 50.0 °F
N
0.0
Wind Variable Wind from East

Today
High -- | Low -- °F
--% Chance of Precip.
Yesterday
High -- | Low -- °F
Precip. -- in
Pressure 30.20 in
Visibility 10.0 miles
Clouds Overcast 2200 ft
Dew Point 50 °F
Humidity 99%
Rainfall 0.00 in
Snow Depth Not available.
7:16 AM 6:18 PM
Waxing Crescent, 19% visible
METAR KVLD 121053Z AUTO 19003KT 10SM OVC022 11/11 A3018 RMK AO2 SLP227 T01060106
Pressure 30.20 in
Visibility 10.0 miles
Clouds Overcast 2200 ft
Dew Point 50 °F
Humidity 99%
Rainfall 0.00 in
Snow Depth Not available.
7:16 AM 6:18 PM
Waxing Crescent, 19% visible
METAR KVLD 121053Z AUTO 19003KT 10SM OVC022 11/11 A3018 RMK AO2 SLP227 T01060106

10-Day Weather Forecast

Almanac

Astronomy

Feb. 12, 2016 Rise Set
Actual Time
Civil Twilight
Nautical Twilight
Astronomical Twilight
Moon
Length of Visible Light
Length of Day
Tomorrow will be .
, % of the Moon is Illuminated

Today's Extremes

State Highs State Lows

Community

WunderPhotos

Upload Photos

1,892,289 photos uploaded!

WunderBlog® & News

Nearby

Air Quality

  Air Quality AQ Index Pollutant
Not available.

Snow Depth

Station Depth Elevation

Earthquake Activity

City Distance Mag. Time & Date
Minimum magnitude displayed is 2.5.

Coastal Water Temperatures

Place Temperature

Stations

Nearby Weather Stations

Station Location Temp. Windchill Dew Point Humidity Wind Precip. Elev Updated Type
                   

Watches & Warnings

Flood Warning
Issued: 11:02 PM EST Feb. 11, 2016 – National Weather Service

The Flood Warning continues for the Withlacoochee River
near Quitman (us 84).
* Until further notice.
* At 10:00 PM Thursday the stage was 103.7 feet.
* Minor flooding is occurring.
* Flood stage is 102.0 feet.
* Impact: at 104.0 feet: spook bridge Lane begins to flood.


Lat... Lon 3084 8346 3074 8355 3064 8342 3063 8322 3073 8341 3079 8335